.
WxDataArchive / Data Records for 2015-03-15
2015-03-14 March 2015 2015-03-16

Data Records for Sunday, 15 March 2015

Time	Temp	Chill	HIndex	Humid	Dewpt	 Wind 	HiWind	WindDir	Rain 	Barom
-----	----	-----	------	-----	-----	------	------	-------	-----	-----
00:00	38.0	38.0	38.0	84	33.6	0	2	292	0.00	30.113 
00:05	38.3	38.3	38.3	83	33.6	0	2	292	0.00	30.113 
00:10	38.6	38.6	38.6	82	33.6	0	1	292	0.00	30.113 
00:15	38.6	38.6	38.6	81	33.3	0	1	292	0.00	30.112 
00:20	38.6	38.6	38.6	80	33.0	0	1	292	0.00	30.112 
00:25	38.6	38.6	38.6	80	33.0	0	1	292	0.00	30.112 
00:30	38.5	38.5	38.5	80	32.9	0	1	292	0.00	30.116 
00:35	38.3	38.3	38.3	79	32.4	0	1	292	0.00	30.116 
00:40	38.3	38.3	38.3	79	32.4	0	1	292	0.00	30.116 
00:45	38.0	38.0	38.0	79	32.1	0	1	292	0.00	30.121 
00:50	37.9	37.9	37.9	80	32.3	0	1	292	0.00	30.121 
00:55	37.9	37.9	37.9	80	32.3	0	1	292	0.00	30.121 
01:00	37.8	37.8	37.8	80	32.2	0	1	292	0.00	30.120 
01:05	37.6	37.6	37.6	80	32.0	0	0	---	0.00	30.120 
01:10	37.5	37.5	37.5	80	31.9	0	0	---	0.00	30.120 
01:15	37.3	37.3	37.3	80	31.7	0	1	292	0.00	30.123 
01:20	37.2	37.2	37.2	80	31.6	0	1	292	0.00	30.123 
01:25	37.2	37.2	37.2	81	31.9	0	1	292	0.00	30.123 
01:30	37.0	37.0	37.0	80	31.4	0	0	---	0.00	30.126 
01:35	36.9	36.9	36.9	80	31.3	0	1	292	0.00	30.126 
01:40	36.8	36.8	36.8	80	31.2	0	0	---	0.00	30.126 
01:45	36.5	36.5	36.5	80	30.9	0	0	---	0.00	30.127 
01:50	36.2	36.2	36.2	81	30.9	0	0	---	0.00	30.127 
01:55	36.0	36.0	36.0	81	30.7	0	1	292	0.00	30.127 
02:00	35.9	35.9	35.9	82	31.0	0	1	292	0.00	30.127 
02:05	35.9	35.9	35.9	82	31.0	0	1	292	0.00	30.127 
02:10	35.9	35.9	35.9	82	31.0	0	1	292	0.00	30.127 
02:15	35.9	35.9	35.9	82	31.0	0	1	292	0.00	30.131 
02:20	36.0	36.0	36.0	82	31.0	0	1	292	0.00	30.131 
02:25	36.0	36.0	36.0	82	31.0	0	1	292	0.00	30.131 
02:30	35.9	35.9	35.9	82	31.0	0	1	292	0.00	30.131 
02:35	35.9	35.9	35.9	82	31.0	0	1	292	0.00	30.131 
02:40	35.8	35.8	35.8	82	30.9	0	1	292	0.00	30.131 
02:45	35.8	35.8	35.8	81	30.6	0	1	292	0.00	30.138 
02:50	35.8	35.8	35.8	81	30.6	0	1	292	0.00	30.138 
02:55	35.6	35.6	35.6	81	30.4	0	1	292	0.00	30.138 
03:00	35.6	35.6	35.6	81	30.4	0	1	292	0.00	30.134 
03:05	35.5	35.5	35.5	81	30.3	0	1	292	0.00	30.134 
03:10	35.5	35.5	35.5	81	30.3	0	1	292	0.00	30.134 
03:15	35.5	35.5	35.5	81	30.3	0	1	292	0.00	30.135 
03:20	35.5	35.5	35.5	81	30.3	0	2	292	0.00	30.135 
03:25	35.5	35.5	35.5	80	30.0	0	1	292	0.00	30.135 
03:30	35.3	35.3	35.3	80	29.8	0	1	292	0.00	30.143 
03:35	35.2	35.2	35.2	80	29.7	0	0	---	0.00	30.143 
03:40	34.9	34.9	34.9	80	29.4	0	0	---	0.00	30.143 
03:45	34.9	34.9	34.9	80	29.4	0	1	292	0.00	30.143 
03:50	34.7	34.7	34.7	80	29.2	0	0	---	0.00	30.143 
03:55	34.6	34.6	34.6	81	29.4	0	1	292	0.00	30.143 
04:00	34.6	34.6	34.6	81	29.4	0	1	292	0.00	30.143 
04:05	34.6	34.6	34.6	81	29.4	0	1	292	0.00	30.143 
04:10	34.4	34.4	34.4	81	29.2	0	1	292	0.00	30.143 
04:15	34.4	34.4	34.4	81	29.2	0	1	292	0.00	30.148 
04:20	34.4	34.4	34.4	81	29.2	0	1	292	0.00	30.148 
04:25	34.3	34.3	34.3	80	28.8	0	1	292	0.00	30.148 
04:30	34.3	34.3	34.3	80	28.8	0	1	292	0.00	30.157 
04:35	34.3	34.3	34.3	80	28.8	0	1	292	0.00	30.157 
04:40	34.1	34.1	34.1	80	28.6	0	1	292	0.00	30.157 
04:45	34.1	34.1	34.1	80	28.6	0	1	292	0.00	30.155 
04:50	34.0	34.0	34.0	80	28.5	0	0	---	0.00	30.155 
04:55	33.8	33.8	33.8	80	28.3	0	1	292	0.00	30.155 
05:00	33.5	33.5	33.5	80	28.0	0	0	---	0.00	30.157 
05:05	33.4	33.4	33.4	80	27.9	0	0	---	0.00	30.157 
05:10	33.1	33.1	33.1	80	27.6	0	0	---	0.00	30.157 
05:15	32.8	32.8	32.8	81	27.6	0	0	---	0.00	30.162 
05:20	32.8	32.8	32.8	81	27.6	0	1	292	0.00	30.162 
05:25	32.8	32.8	32.8	81	27.6	0	0	---	0.00	30.162 
05:30	32.8	32.8	32.8	82	27.9	0	0	---	0.00	30.163 
05:35	32.8	32.8	32.8	82	27.9	0	0	---	0.00	30.163 
05:40	32.7	32.7	32.7	81	27.5	0	0	---	0.00	30.163 
05:45	32.5	32.5	32.5	82	27.6	0	0	---	0.00	30.166 
05:50	32.5	32.5	32.5	82	27.6	0	0	---	0.00	30.166 
05:55	32.4	32.4	32.4	82	27.5	0	0	---	0.00	30.166 
06:00	32.4	32.4	32.4	82	27.5	0	1	292	0.00	30.170 
06:05	32.2	32.2	32.2	82	27.3	0	0	---	0.00	30.170 
06:10	32.1	32.1	32.1	82	27.2	0	0	---	0.00	30.170 
06:15	31.9	31.9	31.9	82	27.0	0	0	---	0.00	30.168 
06:20	31.6	31.6	31.6	82	26.7	0	0	---	0.00	30.168 
06:25	31.3	31.3	31.3	82	26.5	0	0	---	0.00	30.168 
06:30	31.0	31.0	31.0	82	26.2	0	0	---	0.00	30.169 
06:35	30.7	30.7	30.7	82	25.9	0	0	---	0.00	30.169 
06:40	30.6	30.6	30.6	83	26.1	0	0	---	0.00	30.169 
06:45	30.4	30.4	30.4	83	25.9	0	0	---	0.00	30.185 
06:50	30.6	30.6	30.6	84	26.4	0	0	---	0.00	30.185 
06:55	30.6	30.6	30.6	84	26.4	0	0	---	0.00	30.185 
07:00	30.4	30.4	30.4	84	26.2	0	0	---	0.00	30.197 
07:05	30.3	30.3	30.3	84	26.1	0	0	---	0.00	30.197 
07:10	30.1	30.1	30.1	84	25.9	0	0	---	0.00	30.197 
07:15	30.1	30.1	30.1	84	25.9	0	0	---	0.00	30.209 
07:20	30.0	30.0	30.0	85	26.0	0	0	---	0.00	30.209 
07:25	30.0	30.0	30.0	85	26.0	0	0	---	0.00	30.209 
07:30	30.0	30.0	30.0	85	26.0	0	0	---	0.00	30.219 
07:35	30.1	30.1	30.1	85	26.1	0	0	---	0.00	30.219 
07:40	30.1	30.1	30.1	86	26.4	0	0	---	0.00	30.219 
07:45	30.1	30.1	30.1	86	26.4	0	0	---	0.00	30.224 
07:50	30.1	30.1	30.1	86	26.4	0	0	---	0.00	30.224 
07:55	30.3	30.3	30.3	86	26.6	0	0	---	0.00	30.224 
08:00	30.1	30.1	30.1	86	26.4	0	0	---	0.00	30.229 
08:05	30.1	30.1	30.1	86	26.4	0	0	---	0.00	30.229 
08:10	30.1	30.1	30.1	86	26.4	0	0	---	0.00	30.229 
08:15	30.4	30.4	30.4	87	27.0	0	1	292	0.00	30.238 
08:20	30.7	30.7	30.7	87	27.3	0	1	292	0.00	30.238 
08:25	31.3	31.3	31.3	87	27.9	0	1	292	0.00	30.238 
08:30	31.8	31.8	31.8	86	28.1	0	1	292	0.00	30.236 
08:35	32.1	32.1	32.1	86	28.4	0	1	292	0.00	30.236 
08:40	32.4	32.4	32.4	85	28.4	0	1	292	0.00	30.236 
08:45	32.7	32.7	32.7	85	28.7	0	1	292	0.00	30.239 
08:50	33.1	33.1	33.1	84	28.8	0	1	292	0.00	30.239 
08:55	33.2	33.2	33.2	84	28.9	0	2	292	0.00	30.239 
09:00	33.5	33.5	33.5	83	28.9	0	1	292	0.00	30.248 
09:05	33.8	33.8	33.8	83	29.2	0	1	292	0.00	30.248 
09:10	34.0	34.0	34.0	82	29.1	1	3	292	0.00	30.248 
09:15	34.3	34.3	34.3	81	29.1	0	1	292	0.00	30.255 
09:20	34.6	34.6	34.6	81	29.4	0	1	292	0.00	30.255 
09:25	34.9	34.9	34.9	80	29.4	1	4	292	0.00	30.255 
09:30	35.3	35.3	35.3	79	29.4	1	3	292	0.00	30.257 
09:35	35.6	35.6	35.6	78	29.4	0	1	292	0.00	30.257 
09:40	36.0	36.0	36.0	77	29.5	1	2	292	0.00	30.257 
09:45	36.3	36.3	36.3	77	29.8	0	1	292	0.00	30.263 
09:50	36.8	36.8	36.8	76	30.0	0	1	292	0.00	30.263 
09:55	37.0	37.0	37.0	75	29.8	0	2	292	0.00	30.263 
10:00	37.3	37.3	37.3	75	30.1	0	2	292	0.00	30.262 
10:05	37.9	37.9	37.9	73	30.0	0	2	292	0.00	30.262 
10:10	38.2	38.2	38.2	72	30.0	1	6	292	0.00	30.262 
10:15	38.5	38.5	38.5	71	29.9	2	6	338	0.00	30.266 
10:20	38.8	38.8	38.8	69	29.5	2	6	270	0.00	30.266 
10:25	39.1	39.1	39.1	69	29.8	1	4	292	0.00	30.266 
10:30	39.5	39.5	39.5	69	30.2	1	4	292	0.00	30.266 
10:35	39.8	39.8	39.8	69	30.5	1	3	315	0.00	30.266 
10:40	40.1	40.1	40.1	67	30.0	2	5	338	0.00	30.266 
10:45	40.5	40.5	40.5	67	30.4	2	5	315	0.00	30.265 
10:50	40.8	40.8	40.8	66	30.3	1	4	315	0.00	30.265 
10:55	41.2	41.2	41.2	65	30.3	1	4	315	0.00	30.265 
11:00	41.8	41.8	41.8	65	30.9	1	4	0	0.00	30.267 
11:05	42.2	42.2	42.2	65	31.3	1	3	315	0.00	30.267 
11:10	42.6	42.6	42.6	64	31.3	1	3	315	0.00	30.267 
11:15	42.9	42.9	42.9	64	31.6	1	3	315	0.00	30.267 
11:20	43.3	43.3	43.3	62	31.2	1	3	292	0.00	30.267 
11:25	43.3	43.3	43.3	62	31.2	1	5	270	0.00	30.267 
11:30	43.8	43.8	43.8	63	32.0	1	4	270	0.00	30.260 
11:35	43.9	43.9	43.9	60	30.9	2	4	315	0.00	30.260 
11:40	44.2	44.2	44.2	61	31.6	1	3	315	0.00	30.260 
11:45	44.6	44.6	44.6	61	32.0	1	2	315	0.00	30.260 
11:50	45.1	45.1	45.1	59	31.6	1	3	315	0.00	30.260 
11:55	45.2	45.2	45.2	58	31.3	1	3	315	0.00	30.260 
12:00	45.5	45.5	45.5	58	31.6	1	3	315	0.00	30.256 
12:05	45.8	45.8	45.8	58	31.9	1	3	315	0.00	30.256 
12:10	46.1	46.1	46.1	58	32.2	1	3	292	0.00	30.256 
12:15	46.2	46.2	46.2	58	32.2	1	3	292	0.00	30.256 
12:20	46.5	46.5	46.5	57	32.1	1	3	292	0.00	30.256 
12:25	46.7	46.7	46.7	58	32.7	1	3	270	0.00	30.256 
12:30	47.3	47.3	47.3	57	32.8	1	3	270	0.00	30.256 
12:35	47.6	47.6	47.6	56	32.7	1	3	292	0.00	30.256 
12:40	47.7	47.7	47.7	55	32.3	1	3	292	0.00	30.256 
12:45	47.9	47.9	47.9	57	33.4	1	2	292	0.00	30.252 
12:50	48.2	48.2	48.2	54	32.3	1	3	292	0.00	30.252 
12:55	48.3	48.3	48.3	54	32.4	2	5	292	0.00	30.252 
13:00	48.3	48.3	48.3	53	32.0	1	6	292	0.00	30.249 
13:05	48.5	48.5	48.5	54	32.6	1	3	315	0.00	30.249 
13:10	48.9	48.9	48.9	55	33.5	0	4	315	0.00	30.249 
13:15	49.2	49.2	49.2	54	33.3	0	3	315	0.00	30.243 
13:20	49.5	49.5	49.5	54	33.6	0	2	292	0.00	30.243 
13:25	49.9	49.9	49.9	53	33.5	1	3	292	0.00	30.243 
13:30	49.9	49.9	49.9	53	33.5	1	4	315	0.00	30.241 
13:35	50.1	50.1	50.1	54	34.1	0	2	315	0.00	30.241 
13:40	50.4	50.4	50.4	52	33.4	1	4	248	0.00	30.241 
13:45	50.7	50.7	50.7	53	34.2	1	4	248	0.00	30.238 
13:50	51.1	51.1	51.1	53	34.6	0	2	248	0.00	30.238 
13:55	51.7	51.7	51.7	53	35.1	1	3	248	0.00	30.238 
14:00	52.0	52.0	52.0	51	34.4	1	3	248	0.00	30.233 
14:05	52.3	52.3	52.3	51	34.7	1	3	248	0.00	30.233 
14:10	52.3	52.3	52.3	50	34.2	1	5	248	0.00	30.233 
14:15	52.2	52.2	52.2	50	34.1	1	4	315	0.00	30.224 
14:20	52.5	52.5	52.5	53	35.9	1	3	315	0.00	30.224 
14:25	52.8	52.8	52.8	49	34.2	1	4	315	0.00	30.224 
14:30	52.6	52.6	52.6	49	34.0	1	4	315	0.00	30.223 
14:35	52.8	52.8	52.8	50	34.7	1	3	292	0.00	30.223 
14:40	52.9	52.9	52.9	49	34.3	1	4	292	0.00	30.223 
14:45	53.3	53.3	53.3	48	34.1	1	3	292	0.00	30.218 
14:50	53.6	53.6	53.6	49	34.9	1	3	292	0.00	30.218 
14:55	53.8	53.8	53.8	48	34.6	1	3	292	0.00	30.218 
15:00	53.8	53.8	53.8	48	34.6	0	2	292	0.00	30.215 
15:05	53.9	53.9	53.9	48	34.7	1	3	292	0.00	30.215 
15:10	54.1	54.1	54.1	49	35.4	1	3	292	0.00	30.215 
15:15	54.4	54.4	54.4	48	35.1	1	3	292	0.00	30.210 
15:20	54.2	54.2	54.2	48	34.9	1	3	292	0.00	30.210 
15:25	54.2	54.2	54.2	48	34.9	0	2	292	0.00	30.210 
15:30	54.5	54.5	54.5	48	35.2	1	3	292	0.00	30.206 
15:35	54.7	54.7	54.7	48	35.4	1	3	292	0.00	30.206 
15:40	55.1	55.1	55.1	47	35.2	1	3	292	0.00	30.206 
15:45	55.6	55.6	55.6	47	35.7	1	3	292	0.00	30.190 
15:50	56.0	56.0	56.0	46	35.5	1	3	292	0.00	30.190 
15:55	56.3	56.3	56.3	47	36.3	1	3	292	0.00	30.190 
16:00	56.6	56.6	56.6	46	36.1	1	3	292	0.00	30.187 
16:05	56.7	56.7	56.7	46	36.2	1	4	248	0.00	30.187 
16:10	56.9	56.9	56.9	45	35.8	1	3	248	0.00	30.187 
16:15	57.0	57.0	57.0	46	36.4	1	3	248	0.00	30.185 
16:20	56.5	56.5	56.5	46	36.0	2	4	248	0.00	30.185 
16:25	56.3	56.3	56.3	46	35.8	1	2	248	0.00	30.185 
16:30	56.3	56.3	56.3	45	35.2	2	5	248	0.00	30.174 
16:35	55.9	55.9	55.9	47	36.0	1	4	270	0.00	30.174 
16:40	55.7	55.7	55.7	48	36.3	1	5	270	0.00	30.174 
16:45	55.6	55.6	55.6	48	36.2	1	2	270	0.00	30.171 
16:50	55.4	55.4	55.4	48	36.0	1	3	270	0.00	30.171 
16:55	55.7	55.7	55.7	48	36.3	1	4	270	0.00	30.171 
17:00	56.0	56.0	56.0	48	36.6	0	2	270	0.00	30.168 
17:05	56.2	56.2	56.2	48	36.8	1	4	270	0.00	30.168 
17:10	55.9	55.9	55.9	47	36.0	1	3	270	0.00	30.168 
17:15	55.4	55.4	55.4	47	35.5	1	3	270	0.00	30.173 
17:20	55.3	55.3	55.3	48	35.9	0	2	270	0.00	30.173 
17:25	55.1	55.1	55.1	48	35.8	1	3	270	0.00	30.173 
17:30	55.0	55.0	55.0	49	36.2	1	2	270	0.00	30.161 
17:35	55.3	55.3	55.3	50	37.0	0	2	270	0.00	30.161 
17:40	55.4	55.4	55.4	49	36.6	0	4	270	0.00	30.161 
17:45	55.6	55.6	55.6	48	36.2	1	3	270	0.00	30.157 
17:50	55.7	55.7	55.7	48	36.3	0	2	270	0.00	30.157 
17:55	56.0	56.0	56.0	49	37.1	0	2	270	0.00	30.157 
18:00	56.3	56.3	56.3	49	37.4	0	1	270	0.00	30.145 
18:05	56.3	56.3	56.3	47	36.3	0	1	270	0.00	30.145 
18:10	56.2	56.2	56.2	47	36.2	0	1	270	0.00	30.145 
18:15	55.9	55.9	55.9	47	36.0	0	2	270	0.00	30.142 
18:20	55.4	55.4	55.4	47	35.5	1	2	270	0.00	30.142 
18:25	55.3	55.3	55.3	47	35.4	0	1	270	0.00	30.142 
18:30	55.3	55.3	55.3	48	35.9	0	2	270	0.00	30.141 
18:35	55.1	55.1	55.1	48	35.8	0	1	270	0.00	30.141 
18:40	55.1	55.1	55.1	49	36.3	0	1	270	0.00	30.141 
18:45	55.0	55.0	55.0	50	36.7	0	1	270	0.00	30.138 
18:50	54.7	54.7	54.7	50	36.4	0	3	270	0.00	30.138 
18:55	54.5	54.5	54.5	52	37.2	0	2	270	0.00	30.138 
19:00	54.1	54.1	54.1	53	37.4	0	1	270	0.00	30.125 
19:05	53.6	53.6	53.6	54	37.4	0	1	270	0.00	30.125 
19:10	53.3	53.3	53.3	55	37.5	0	0	---	0.00	30.125 
19:15	53.1	53.1	53.1	55	37.4	0	1	270	0.00	30.133 
19:20	52.8	52.8	52.8	55	37.1	0	1	270	0.00	30.133 
19:25	52.6	52.6	52.6	55	36.9	0	1	270	0.00	30.133 
19:30	52.5	52.5	52.5	55	36.8	0	0	---	0.00	30.124 
19:35	52.2	52.2	52.2	56	37.0	0	0	---	0.00	30.124 
19:40	51.9	51.9	51.9	56	36.7	0	0	---	0.00	30.124 
19:45	51.4	51.4	51.4	57	36.7	0	0	---	0.00	30.116 
19:50	51.0	51.0	51.0	58	36.7	0	0	---	0.00	30.116 
19:55	50.5	50.5	50.5	59	36.7	0	1	270	0.00	30.116 
20:00	50.1	50.1	50.1	60	36.8	0	0	---	0.00	30.118 
20:05	49.8	49.8	49.8	60	36.5	0	0	---	0.00	30.118 
20:10	49.4	49.4	49.4	62	36.9	0	1	270	0.00	30.118 
20:15	49.2	49.2	49.2	63	37.1	0	2	270	0.00	30.105 
20:20	49.4	49.4	49.4	63	37.3	0	1	270	0.00	30.105 
20:25	49.2	49.2	49.2	63	37.1	0	0	---	0.00	30.105 
20:30	48.9	48.9	48.9	63	36.9	0	0	---	0.00	30.114 
20:35	48.6	48.6	48.6	64	37.0	0	1	270	0.00	30.114 
20:40	48.5	48.5	48.5	65	37.3	0	1	270	0.00	30.114 
20:45	48.3	48.3	48.3	65	37.1	0	2	270	0.00	30.100 
20:50	48.5	48.5	48.5	66	37.7	0	1	270	0.00	30.100 
20:55	48.5	48.5	48.5	66	37.7	0	0	---	0.00	30.100 
21:00	48.3	48.3	48.3	66	37.5	0	0	---	0.00	30.094 
21:05	48.2	48.2	48.2	67	37.8	0	0	---	0.00	30.094 
21:10	47.9	47.9	47.9	68	37.9	0	0	---	0.00	30.094 
21:15	47.7	47.7	47.7	69	38.0	0	1	270	0.00	30.085 
21:20	47.6	47.6	47.6	69	37.9	0	1	270	0.00	30.085 
21:25	47.7	47.7	47.7	69	38.0	0	1	270	0.00	30.085 
21:30	47.9	47.9	47.9	69	38.2	0	1	270	0.00	30.082 
21:35	48.0	48.0	48.0	69	38.3	0	1	270	0.00	30.082 
21:40	47.9	47.9	47.9	69	38.2	0	0	---	0.00	30.082 
21:45	47.7	47.7	47.7	70	38.4	0	1	270	0.00	30.072 
21:50	47.6	47.6	47.6	70	38.3	0	1	270	0.00	30.072 
21:55	47.4	47.4	47.4	71	38.5	0	1	270	0.00	30.072 
22:00	47.4	47.4	47.4	71	38.5	0	1	270	0.00	30.067 
22:05	47.4	47.4	47.4	72	38.8	0	1	270	0.00	30.067 
22:10	47.4	47.4	47.4	73	39.2	0	1	270	0.00	30.067 
22:15	47.6	47.6	47.6	73	39.4	0	1	270	0.00	30.053 
22:20	47.7	47.7	47.7	72	39.1	0	1	270	0.00	30.053 
22:25	48.0	48.0	48.0	72	39.4	0	1	270	0.00	30.053 
22:30	48.3	48.3	48.3	71	39.3	0	1	270	0.00	30.049 
22:35	48.8	48.8	48.8	70	39.5	0	2	270	0.00	30.049 
22:40	49.2	49.2	49.2	69	39.5	0	3	270	0.00	30.049 
22:45	49.4	49.4	49.4	68	39.3	0	2	270	0.00	30.043 
22:50	49.6	49.6	49.6	67	39.1	0	3	270	0.00	30.043 
22:55	49.8	49.8	49.8	67	39.3	0	1	270	0.00	30.043 
23:00	49.8	49.8	49.8	66	38.9	0	2	270	0.00	30.031 
23:05	49.8	49.8	49.8	66	38.9	0	2	270	0.00	30.031 
23:10	49.9	49.9	49.9	66	39.0	0	1	270	0.00	30.031 
23:15	50.1	50.1	50.1	65	38.8	0	3	270	0.00	30.018 
23:20	50.2	50.2	50.2	65	38.9	1	3	270	0.00	30.018 
23:25	50.5	50.5	50.5	64	38.8	0	2	270	0.00	30.018 
23:30	50.7	50.7	50.7	63	38.6	1	3	270	0.00	30.029 
23:35	51.0	51.0	51.0	63	38.9	0	3	270	0.00	30.029 
23:40	51.1	51.1	51.1	63	38.9	0	3	270	0.00	30.029 
23:45	51.1	51.1	51.1	63	38.9	0	2	270	0.00	30.038 
23:50	51.0	51.0	51.0	63	38.9	0	1	270	0.00	30.038 
23:55	51.1	51.1	51.1	63	38.9	0	3	270	0.00	30.038 

CoCoRaHS
IN-AL-39
A2 Web Hosting
Creative Commons License
GoDaddy
search engine by freefind advanced

loaded 2018-11-21 00:28:30 • last modified 2010-11-18 10:43:29
Privacy PolicyDisclaimer
• wx.awcolley.com is powered by PmWiki v.2002016 •
• all content (unless otherwise noted) © 2018 A W Colley